Oil Valley, Kentucky
Current Conditions -  °F | °C
As of 1:56 PM on Monday 20 Oct 2014 (Local Time) from KEKQ Reporting Station
Few Clouds Few Clouds  
Wind Chill: 59°   Ceiling: Unl
Heat Index: 59°   Visibility: 10mi
Dew Point: 50°   Wind: 8mph
Humidity: 72%   Direction: 180°S
Pressure: 30.01"   Gusts: NA
Location:  36.8129°N, 84.8215°W
Report Text: KEKQ 201756Z AUTO 18007KT 10SM FEW110 15/10 A3001 RMK AO2 58028 T01500100 10161 20027 SLP166
Loading
Personal Weather Stations






























Interactive Weather Map
Tropical Storm Tracking
New forecast layout! Learn more

10-Day Weather Forecast

Advertisements
Track Severe Weather on mobile